createdAt,value
2019-03-17T00:01:33.807Z,87.90
2019-03-17T00:04:02.854Z,86.30
2019-03-17T00:06:35.474Z,82.40
2019-03-17T00:09:05.850Z,80.40
2019-03-17T00:11:34.756Z,78.80
2019-03-17T00:14:03.744Z,76.50
2019-03-17T00:16:32.962Z,76.30
2019-03-17T00:19:01.903Z,74.30
2019-03-17T00:21:30.833Z,74.40
2019-03-17T00:23:59.961Z,73.50
2019-03-17T00:26:29.017Z,73.70
2019-03-17T00:28:58.173Z,73.50
2019-03-17T00:31:27.207Z,73.50
2019-03-17T00:33:56.229Z,72.80
2019-03-17T00:36:25.375Z,71.00
2019-03-17T00:38:54.377Z,70.30
2019-03-17T00:41:23.368Z,69.50
2019-03-17T00:43:52.458Z,67.00
2019-03-17T00:46:21.630Z,68.50
2019-03-17T00:48:50.597Z,67.30
2019-03-17T00:51:19.999Z,66.60
2019-03-17T00:53:49.156Z,67.20
2019-03-17T00:56:18.874Z,65.60
2019-03-17T00:58:48.153Z,65.00
2019-03-17T01:01:17.896Z,65.00
2019-03-17T01:03:47.028Z,65.00
2019-03-17T01:06:15.916Z,65.00
2019-03-17T01:08:44.946Z,65.00
2019-03-17T01:11:14.056Z,64.10
2019-03-17T01:13:43.037Z,63.40
2019-03-17T01:16:12.488Z,63.30
2019-03-17T01:18:41.525Z,63.10
2019-03-17T01:21:10.547Z,63.40
2019-03-17T01:23:39.602Z,62.30
2019-03-17T01:26:08.636Z,63.70
2019-03-17T01:28:37.577Z,61.60
2019-03-17T01:31:06.647Z,63.20
2019-03-17T01:33:35.648Z,64.00
2019-03-17T01:36:04.761Z,62.70
2019-03-17T01:38:33.724Z,63.60
2019-03-17T01:41:02.686Z,61.20
2019-03-17T01:43:31.774Z,61.60
2019-03-17T01:46:00.990Z,60.80
2019-03-17T01:48:29.988Z,60.60
2019-03-17T01:50:58.999Z,60.90
2019-03-17T01:53:28.052Z,60.50
2019-03-17T01:55:57.146Z,60.50
2019-03-17T01:58:26.181Z,60.00
2019-03-17T02:00:55.254Z,59.50
2019-03-17T02:03:24.231Z,60.50
2019-03-17T02:05:53.247Z,60.70
2019-03-17T02:08:22.238Z,59.50
2019-03-17T02:10:51.232Z,58.80
2019-03-17T02:13:20.238Z,58.60
2019-03-17T02:15:49.209Z,59.30
2019-03-17T02:18:18.119Z,60.30
2019-03-17T02:20:47.206Z,60.30
2019-03-17T02:23:16.269Z,61.20
2019-03-17T02:25:45.699Z,61.60
2019-03-17T02:28:15.157Z,60.00
2019-03-17T02:30:44.550Z,60.90
2019-03-17T02:33:13.473Z,61.60
2019-03-17T02:35:42.605Z,61.60
2019-03-17T02:38:11.493Z,60.70
2019-03-17T02:40:40.774Z,62.60
2019-03-17T02:43:10.079Z,62.70
2019-03-17T02:45:39.156Z,62.20
2019-03-17T02:48:08.184Z,62.90
2019-03-17T02:50:37.175Z,62.70
2019-03-17T02:53:06.272Z,64.00
2019-03-17T02:55:35.240Z,63.50
2019-03-17T02:58:04.575Z,63.20
2019-03-17T03:00:33.648Z,63.90
2019-03-17T03:03:02.565Z,64.00
2019-03-17T03:05:31.699Z,63.90
2019-03-17T03:08:00.986Z,62.90
2019-03-17T03:10:32.074Z,61.20
2019-03-17T03:13:01.196Z,62.20
2019-03-17T03:15:30.202Z,61.30
2019-03-17T03:17:59.494Z,61.70
2019-03-17T03:20:28.579Z,61.40
2019-03-17T03:22:57.661Z,61.70
2019-03-17T03:25:26.635Z,62.00
2019-03-17T03:27:55.644Z,62.90
2019-03-17T03:30:24.669Z,62.70
2019-03-17T03:32:53.649Z,63.20
2019-03-17T03:35:22.892Z,64.40
2019-03-17T03:37:51.823Z,64.30
2019-03-17T03:40:20.769Z,63.80
2019-03-17T03:42:49.713Z,64.30
2019-03-17T03:45:18.682Z,64.30
2019-03-17T03:47:47.732Z,63.40
2019-03-17T03:50:16.785Z,63.20
2019-03-17T03:52:45.957Z,63.70
2019-03-17T03:55:14.944Z,64.20
2019-03-17T03:57:44.055Z,64.30
2019-03-17T04:00:13.740Z,62.70
2019-03-17T04:02:42.723Z,62.40
2019-03-17T04:05:12.166Z,63.60
2019-03-17T04:07:41.185Z,63.00
2019-03-17T04:10:13.537Z,64.30
2019-03-17T04:12:42.924Z,64.40
2019-03-17T04:15:12.524Z,64.60
2019-03-17T04:17:41.619Z,64.90
2019-03-17T04:20:11.990Z,65.70
2019-03-17T04:22:41.076Z,65.70
2019-03-17T04:25:10.711Z,64.90
2019-03-17T04:27:39.648Z,65.40
2019-03-17T04:30:08.774Z,64.70
2019-03-17T04:32:38.077Z,64.30
2019-03-17T04:35:07.776Z,64.20
2019-03-17T04:37:37.400Z,64.20
2019-03-17T04:40:06.705Z,64.30
2019-03-17T04:42:35.697Z,63.20
2019-03-17T04:45:04.852Z,64.30
2019-03-17T04:47:33.917Z,62.90
2019-03-17T04:50:03.301Z,63.20
2019-03-17T04:52:32.404Z,63.90
2019-03-17T04:55:01.453Z,63.00
2019-03-17T04:57:30.350Z,64.30
2019-03-17T04:59:59.216Z,64.30
2019-03-17T05:02:28.256Z,64.30
2019-03-17T05:04:57.507Z,64.30
2019-03-17T05:07:26.480Z,64.30
2019-03-17T05:09:55.785Z,64.30
2019-03-17T05:12:25.219Z,64.30
2019-03-17T05:14:54.266Z,64.30
2019-03-17T05:17:23.284Z,64.30
2019-03-17T05:19:52.389Z,64.30
2019-03-17T05:22:21.432Z,64.40
2019-03-17T05:24:50.406Z,64.70
2019-03-17T05:27:19.479Z,65.90
2019-03-17T05:29:48.470Z,66.40
2019-03-17T05:32:17.408Z,68.50
2019-03-17T05:34:46.400Z,68.20
2019-03-17T05:37:15.436Z,68.70
2019-03-17T05:39:44.430Z,69.50
2019-03-17T05:42:13.588Z,71.90
2019-03-17T05:44:42.652Z,72.90
2019-03-17T05:47:11.744Z,74.70
2019-03-17T05:49:40.714Z,76.40
2019-03-17T05:52:09.956Z,78.30
2019-03-17T05:54:39.268Z,80.60
2019-03-17T05:57:08.242Z,83.80
2019-03-17T05:59:37.195Z,86.50
2019-03-17T06:02:06.306Z,91.10
2019-03-17T06:04:35.337Z,92.20
2019-03-17T06:07:04.429Z,94.80
2019-03-17T06:09:33.369Z,95.20
2019-03-17T06:12:02.380Z,97.30
2019-03-17T06:14:31.272Z,97.40
2019-03-17T06:17:00.221Z,98.60
2019-03-17T06:19:29.167Z,99.20
2019-03-17T06:22:00.399Z,99.30
2019-03-17T06:24:28.967Z,99.30
2019-03-17T06:26:57.913Z,99.90
2019-03-17T06:29:26.850Z,99.90
2019-03-17T06:31:55.904Z,99.90
2019-03-17T06:34:24.946Z,99.90
2019-03-17T06:36:53.944Z,99.90
2019-03-17T06:39:24.006Z,99.90
2019-03-17T06:41:52.967Z,99.90
2019-03-17T06:44:22.296Z,99.90
2019-03-17T06:46:51.344Z,99.90
2019-03-17T06:49:20.738Z,99.90
2019-03-17T06:51:49.663Z,99.90
2019-03-17T06:54:18.920Z,99.90
2019-03-17T06:56:47.989Z,99.90
2019-03-17T06:59:17.744Z,99.90
2019-03-17T07:01:46.960Z,99.90
2019-03-17T07:04:15.868Z,99.90
2019-03-17T07:06:45.595Z,99.90
2019-03-17T07:09:14.984Z,99.90
2019-03-17T07:11:43.969Z,99.90
2019-03-17T07:14:12.962Z,99.90
2019-03-17T07:16:41.981Z,99.90
2019-03-17T07:19:10.980Z,99.90
2019-03-17T07:21:40.084Z,99.90
2019-03-17T07:24:09.190Z,99.90
2019-03-17T07:26:38.535Z,99.90
2019-03-17T07:29:07.632Z,99.90
2019-03-17T07:31:36.609Z,99.90
2019-03-17T07:34:06.002Z,99.90
2019-03-17T07:36:35.156Z,99.90
2019-03-17T07:39:11.681Z,99.90
2019-03-17T07:41:36.840Z,99.90
2019-03-17T07:44:05.885Z,99.90
2019-03-17T07:46:35.183Z,99.90
2019-03-17T07:49:04.192Z,99.90
2019-03-17T07:51:33.261Z,99.90
2019-03-17T07:54:03.081Z,99.90
2019-03-17T07:56:32.424Z,99.90
2019-03-17T07:59:01.852Z,99.90
2019-03-17T08:01:31.036Z,99.90
2019-03-17T08:04:00.059Z,99.90
2019-03-17T08:06:29.597Z,99.90
2019-03-17T08:09:00.659Z,99.90
2019-03-17T08:11:29.581Z,99.90
2019-03-17T08:13:58.918Z,99.90
2019-03-17T08:16:28.407Z,99.90
2019-03-17T08:18:58.031Z,99.90
2019-03-17T08:21:27.399Z,99.90
2019-03-17T08:23:56.308Z,99.90
2019-03-17T08:26:26.759Z,99.90
2019-03-17T08:28:56.431Z,99.90
2019-03-17T08:31:25.551Z,99.70
2019-03-17T08:33:54.664Z,99.70
2019-03-17T08:36:23.748Z,99.90
2019-03-17T08:39:11.922Z,99.30
2019-03-17T08:41:40.780Z,99.00
2019-03-17T08:44:09.579Z,99.10
2019-03-17T08:46:39.328Z,98.30
2019-03-17T08:49:08.466Z,98.40
2019-03-17T08:51:37.614Z,98.10
2019-03-17T08:54:06.761Z,96.60
2019-03-17T08:56:35.579Z,98.40
2019-03-17T08:59:04.657Z,96.90
2019-03-17T09:01:33.933Z,96.00
2019-03-17T09:04:03.386Z,96.40
2019-03-17T09:06:32.697Z,95.40
2019-03-17T09:09:01.621Z,95.50
2019-03-17T09:11:30.423Z,96.50
2019-03-17T09:13:59.375Z,96.90
2019-03-17T09:16:28.554Z,95.20
2019-03-17T09:18:57.868Z,95.00
2019-03-17T09:21:27.309Z,94.80
2019-03-17T09:23:56.125Z,94.80
2019-03-17T09:26:24.943Z,94.80
2019-03-17T09:28:53.794Z,95.70
2019-03-17T09:31:22.612Z,94.80
2019-03-17T09:33:51.478Z,95.20
2019-03-17T09:36:20.682Z,94.50
2019-03-17T09:38:49.656Z,94.10
2019-03-17T09:41:19.255Z,93.20
2019-03-17T09:43:48.176Z,93.30
2019-03-17T09:46:17.409Z,92.80
2019-03-17T09:48:46.333Z,92.20
2019-03-17T09:51:15.390Z,90.70
2019-03-17T09:53:44.256Z,89.60
2019-03-17T09:56:13.180Z,87.80
2019-03-17T09:58:42.161Z,85.30
2019-03-17T10:01:11.439Z,88.60
2019-03-17T10:03:40.359Z,85.20
2019-03-17T10:06:09.226Z,88.30
2019-03-17T10:08:42.184Z,81.00
2019-03-17T10:11:15.288Z,81.00
2019-03-17T10:13:59.095Z,79.90
2019-03-17T10:16:29.156Z,78.20
2019-03-17T10:18:58.924Z,77.50
2019-03-17T10:21:30.520Z,72.70
2019-03-17T10:24:02.798Z,73.50
2019-03-17T10:26:32.234Z,75.40
2019-03-17T10:29:01.101Z,72.60
2019-03-17T10:31:30.785Z,73.90
2019-03-17T10:33:59.631Z,69.70
2019-03-17T10:36:28.671Z,71.90
2019-03-17T10:38:57.774Z,69.80
2019-03-17T10:41:26.938Z,65.50
2019-03-17T10:43:55.776Z,61.60
2019-03-17T10:46:24.864Z,55.20
2019-03-17T10:48:54.449Z,55.10
2019-03-17T10:51:23.268Z,55.20
2019-03-17T10:53:52.667Z,53.80
2019-03-17T10:56:21.509Z,50.00
2019-03-17T10:58:50.330Z,50.70
2019-03-17T11:01:19.647Z,51.40
2019-03-17T11:03:48.457Z,53.80
2019-03-17T11:06:17.575Z,55.30
2019-03-17T11:08:46.603Z,55.80
2019-03-17T11:11:15.440Z,54.80
2019-03-17T11:13:44.300Z,54.60
2019-03-17T11:16:13.473Z,56.10
2019-03-17T11:18:42.484Z,56.20
2019-03-17T11:21:11.307Z,56.10
2019-03-17T11:23:40.280Z,56.90
2019-03-17T11:26:09.202Z,56.40
2019-03-17T11:28:38.360Z,51.90
2019-03-17T11:31:07.268Z,52.00
2019-03-17T11:33:36.150Z,43.50
2019-03-17T11:36:05.229Z,45.20
2019-03-17T11:38:34.245Z,45.00
2019-03-17T11:41:03.112Z,44.10
2019-03-17T11:43:32.143Z,43.60
2019-03-17T11:46:01.201Z,43.60
2019-03-17T11:48:30.219Z,43.10
2019-03-17T11:50:59.699Z,39.20
2019-03-17T11:53:28.602Z,37.90
2019-03-17T11:55:57.491Z,37.90
2019-03-17T11:58:26.975Z,39.60
2019-03-17T12:00:56.041Z,37.30
2019-03-17T12:03:25.011Z,35.40
2019-03-17T12:05:54.165Z,33.60
2019-03-17T12:08:23.155Z,34.10
2019-03-17T12:10:52.149Z,33.10
2019-03-17T12:13:21.099Z,32.80
2019-03-17T12:15:50.139Z,33.60
2019-03-17T12:18:18.958Z,34.80
2019-03-17T12:20:47.798Z,34.30
2019-03-17T12:23:16.915Z,33.90
2019-03-17T12:25:45.744Z,34.50
2019-03-17T12:28:14.888Z,35.20
2019-03-17T12:30:43.900Z,36.10
2019-03-17T12:33:13.051Z,35.50
2019-03-17T12:35:42.370Z,34.30
2019-03-17T12:38:11.484Z,36.10
2019-03-17T12:40:40.888Z,36.20
2019-03-17T12:43:09.895Z,32.90
2019-03-17T12:45:38.973Z,35.50
2019-03-17T12:48:08.386Z,37.30
2019-03-17T12:50:37.204Z,34.20
2019-03-17T12:53:07.911Z,35.00
2019-03-17T12:55:37.205Z,34.90
2019-03-17T12:58:06.302Z,32.50
2019-03-17T13:00:35.184Z,33.60
2019-03-17T13:03:04.450Z,33.50
2019-03-17T13:05:33.895Z,33.50
2019-03-17T13:08:04.006Z,32.40
2019-03-17T13:10:32.930Z,33.30
2019-03-17T13:13:01.901Z,37.30
2019-03-17T13:15:31.009Z,46.00
2019-03-17T13:18:09.796Z,50.80
2019-03-17T13:20:39.214Z,51.50
2019-03-17T13:23:08.211Z,54.40
2019-03-17T13:25:37.129Z,55.30
2019-03-17T13:28:06.079Z,55.30
2019-03-17T13:30:35.294Z,53.00
2019-03-17T13:33:04.172Z,53.10
2019-03-17T13:35:33.173Z,53.40
2019-03-17T13:38:02.022Z,51.80
2019-03-17T13:40:31.249Z,50.90
2019-03-17T13:43:00.269Z,50.40
2019-03-17T13:45:29.243Z,51.10
2019-03-17T13:47:58.765Z,49.60
2019-03-17T13:50:28.511Z,50.20
2019-03-17T13:52:57.460Z,51.00
2019-03-17T13:55:26.552Z,51.80
2019-03-17T13:57:56.531Z,52.90
2019-03-17T14:00:26.447Z,51.30
2019-03-17T14:02:55.768Z,51.00
2019-03-17T14:05:24.665Z,53.40
2019-03-17T14:07:54.079Z,54.20
2019-03-17T14:10:23.363Z,52.50
2019-03-17T14:12:52.471Z,52.60
2019-03-17T14:15:21.673Z,48.40
2019-03-17T14:17:50.787Z,40.50
2019-03-17T14:20:20.952Z,31.90
2019-03-17T14:22:50.321Z,32.40
2019-03-17T14:25:22.632Z,31.20
2019-03-17T14:27:51.769Z,31.70
2019-03-17T14:30:20.775Z,32.60
2019-03-17T14:32:49.710Z,33.60
2019-03-17T14:35:21.333Z,36.90
2019-03-17T14:37:49.616Z,36.70
2019-03-17T14:40:18.994Z,38.20
2019-03-17T14:42:48.112Z,37.80
2019-03-17T14:45:17.198Z,37.20
2019-03-17T14:47:46.366Z,38.30
2019-03-17T14:50:16.622Z,36.70
2019-03-17T14:52:45.610Z,37.20
2019-03-17T14:55:14.830Z,38.50
2019-03-17T14:57:43.830Z,41.30
2019-03-17T15:00:15.134Z,41.80
2019-03-17T15:02:44.321Z,42.50
2019-03-17T15:05:13.430Z,42.30
2019-03-17T15:07:42.376Z,41.20
2019-03-17T15:10:14.395Z,42.50
2019-03-17T15:12:44.087Z,45.40
2019-03-17T15:15:14.024Z,49.90
2019-03-17T15:17:47.097Z,58.20
2019-03-17T15:20:17.464Z,78.50
2019-03-17T15:22:46.367Z,91.30
2019-03-17T15:25:15.462Z,94.20
2019-03-17T15:27:44.806Z,94.50
2019-03-17T15:32:43.515Z,93.60
2019-03-17T15:35:13.047Z,95.70
2019-03-17T15:37:42.032Z,93.60
2019-03-17T15:40:11.589Z,91.90
2019-03-17T15:42:40.543Z,91.10
2019-03-17T15:45:11.666Z,83.40
2019-03-17T15:47:40.674Z,85.60
2019-03-17T15:50:11.023Z,80.00
2019-03-17T15:52:40.064Z,82.00
2019-03-17T15:55:10.126Z,82.80
2019-03-17T15:57:39.504Z,83.20
2019-03-17T16:00:23.758Z,75.50
2019-03-17T16:02:42.792Z,78.90
2019-03-17T16:05:12.061Z,78.70
2019-03-17T16:07:42.469Z,79.40
2019-03-17T16:10:12.873Z,78.80
2019-03-17T16:12:41.940Z,77.90
2019-03-17T16:15:11.919Z,76.40
2019-03-17T16:17:40.973Z,80.50
2019-03-17T16:20:13.808Z,72.90
2019-03-17T16:22:42.714Z,77.50
2019-03-17T16:25:12.768Z,76.10
2019-03-17T16:27:41.741Z,76.70
2019-03-17T16:30:14.126Z,78.90
2019-03-17T16:32:43.465Z,77.70
2019-03-17T16:35:12.972Z,76.60
2019-03-17T16:37:45.110Z,78.50
2019-03-17T16:40:14.280Z,73.80
2019-03-17T16:42:43.170Z,72.20
2019-03-17T16:45:12.799Z,72.90
2019-03-17T16:47:42.529Z,72.50
2019-03-17T16:50:13.020Z,73.90
2019-03-17T16:52:42.023Z,72.90
2019-03-17T16:55:11.853Z,70.60
2019-03-17T16:57:40.951Z,71.40
2019-03-17T17:00:15.158Z,71.30
2019-03-17T17:02:44.634Z,69.20
2019-03-17T17:05:13.729Z,72.10
2019-03-17T17:07:42.970Z,69.40
2019-03-17T17:10:13.485Z,68.30
2019-03-17T17:12:42.479Z,66.90
2019-03-17T17:15:17.886Z,65.80
2019-03-17T17:17:46.766Z,61.80
2019-03-17T17:20:17.979Z,62.40
2019-03-17T17:23:47.408Z,63.00
2019-03-17T17:26:16.324Z,64.90
2019-03-17T17:28:45.225Z,66.20
2019-03-17T17:31:14.972Z,67.20
2019-03-17T17:33:44.230Z,67.40
2019-03-17T17:36:13.095Z,67.70
2019-03-17T17:38:43.034Z,68.30
2019-03-17T17:41:12.127Z,70.80
2019-03-17T17:43:41.025Z,69.40
2019-03-17T17:46:10.120Z,68.50
2019-03-17T17:48:39.099Z,66.20
2019-03-17T17:51:08.205Z,65.80
2019-03-17T17:53:37.141Z,66.10
2019-03-17T17:56:06.123Z,67.40
2019-03-17T17:58:35.500Z,67.30
2019-03-17T18:01:04.595Z,68.80
2019-03-17T18:03:33.680Z,70.50
2019-03-17T18:06:02.581Z,71.10
2019-03-17T18:08:31.679Z,70.30
2019-03-17T18:11:00.637Z,71.00
2019-03-17T18:13:29.549Z,72.40
2019-03-17T18:15:58.538Z,72.90
2019-03-17T18:18:27.552Z,75.70
2019-03-17T18:20:56.726Z,91.60
2019-03-17T18:23:26.038Z,99.90
2019-03-17T18:25:54.860Z,99.90
2019-03-17T18:28:23.822Z,99.90
2019-03-17T18:30:52.787Z,99.90
2019-03-17T18:33:21.623Z,99.90
2019-03-17T18:35:50.766Z,99.90
2019-03-17T18:38:19.813Z,99.90
2019-03-17T18:40:49.210Z,99.90
2019-03-17T18:43:18.266Z,99.90
2019-03-17T18:45:47.298Z,99.90
2019-03-17T18:48:16.290Z,99.90
2019-03-17T18:50:45.779Z,99.90
2019-03-17T18:53:15.029Z,99.90
2019-03-17T18:55:44.379Z,99.90
2019-03-17T18:58:13.286Z,99.90
2019-03-17T19:00:42.472Z,99.90
2019-03-17T19:03:11.287Z,99.90
2019-03-17T19:05:40.224Z,99.90
2019-03-17T19:08:09.168Z,99.90
2019-03-17T19:10:38.132Z,99.90
2019-03-17T19:13:07.129Z,99.90
2019-03-17T19:15:35.954Z,99.90
2019-03-17T19:18:05.116Z,99.90
2019-03-17T19:20:34.109Z,99.90
2019-03-17T19:23:02.928Z,99.90
2019-03-17T19:25:32.311Z,99.90
2019-03-17T19:28:01.299Z,99.90
2019-03-17T19:30:30.211Z,99.90
2019-03-17T19:32:59.151Z,99.90
2019-03-17T19:35:28.475Z,99.90
2019-03-17T19:37:57.435Z,99.90
2019-03-17T19:40:26.456Z,99.90
2019-03-17T19:42:59.698Z,99.90
2019-03-17T19:45:26.211Z,99.90
2019-03-17T19:47:55.177Z,99.90
2019-03-17T19:50:24.279Z,99.90
2019-03-17T19:52:53.415Z,99.90
2019-03-17T19:55:22.354Z,99.90
2019-03-17T19:57:51.362Z,99.90
2019-03-17T20:00:20.256Z,99.90
2019-03-17T20:02:49.251Z,99.90
2019-03-17T20:05:18.278Z,99.90
2019-03-17T20:07:47.185Z,99.90
2019-03-17T20:10:18.730Z,99.90
2019-03-17T20:12:47.784Z,99.90
2019-03-17T20:15:16.731Z,99.90
2019-03-17T20:17:45.978Z,99.90
2019-03-17T20:20:15.313Z,99.90
2019-03-17T20:22:44.464Z,99.90
2019-03-17T20:25:13.726Z,99.90
2019-03-17T20:27:42.778Z,99.90
2019-03-17T20:30:12.294Z,99.90
2019-03-17T20:32:41.182Z,99.90
2019-03-17T20:35:10.544Z,99.90
2019-03-17T20:37:39.643Z,99.90
2019-03-17T20:40:09.872Z,99.90
2019-03-17T20:42:42.248Z,99.90
2019-03-17T20:45:11.330Z,99.90
2019-03-17T20:47:40.341Z,99.90
2019-03-17T20:50:10.574Z,99.90
2019-03-17T20:52:39.759Z,99.90
2019-03-17T20:55:09.474Z,99.90
2019-03-17T20:57:38.667Z,99.90
2019-03-17T21:00:10.555Z,99.90
2019-03-17T21:02:39.451Z,99.90
2019-03-17T21:05:09.587Z,99.90
2019-03-17T21:07:38.730Z,99.90
2019-03-17T21:10:09.895Z,99.90
2019-03-17T21:12:38.972Z,99.90
2019-03-17T21:15:09.418Z,99.90
2019-03-17T21:17:38.630Z,99.90
2019-03-17T21:20:09.973Z,99.90
2019-03-17T21:22:38.913Z,99.90
2019-03-17T21:25:07.807Z,99.90
2019-03-17T21:27:36.749Z,99.90
2019-03-17T21:30:08.563Z,99.90
2019-03-17T21:32:37.584Z,99.90
2019-03-17T21:35:06.709Z,99.90
2019-03-17T21:37:35.696Z,99.90
2019-03-17T21:40:05.120Z,99.90
2019-03-17T21:42:34.012Z,99.90
2019-03-17T21:45:03.025Z,99.90
2019-03-17T21:47:31.877Z,99.90
2019-03-17T21:50:00.909Z,99.90
2019-03-17T21:52:30.048Z,99.90
2019-03-17T21:54:58.941Z,99.30
2019-03-17T21:57:27.829Z,98.70
2019-03-17T21:59:56.797Z,99.00
2019-03-17T22:02:25.831Z,99.20
2019-03-17T22:04:54.871Z,99.80
2019-03-17T22:07:23.812Z,99.90
2019-03-17T22:09:52.705Z,99.90
2019-03-17T22:12:21.571Z,99.90
2019-03-17T22:14:50.420Z,99.90
2019-03-17T22:17:19.367Z,99.90
2019-03-17T22:19:48.663Z,99.90
2019-03-17T22:22:17.580Z,99.90
2019-03-17T22:24:46.398Z,99.90
2019-03-17T22:27:15.277Z,99.90
2019-03-17T22:29:44.171Z,99.90
2019-03-17T22:32:12.987Z,99.90
2019-03-17T22:34:41.848Z,99.90
2019-03-17T22:37:10.685Z,99.90
2019-03-17T22:39:39.609Z,99.90
2019-03-17T22:42:09.418Z,99.90
2019-03-17T22:44:38.284Z,99.90
2019-03-17T22:47:07.199Z,99.90
2019-03-17T22:49:36.132Z,99.90
2019-03-17T22:52:05.141Z,99.90
2019-03-17T22:54:34.055Z,99.90
2019-03-17T22:57:02.968Z,99.90
2019-03-17T22:59:31.931Z,99.90
2019-03-17T23:02:00.992Z,99.90
2019-03-17T23:04:29.796Z,99.90
2019-03-17T23:06:58.692Z,99.90
2019-03-17T23:09:27.615Z,99.90
2019-03-17T23:11:56.655Z,99.90
2019-03-17T23:14:36.158Z,99.90
2019-03-17T23:16:56.132Z,99.90
2019-03-17T23:19:25.074Z,99.90
2019-03-17T23:21:54.065Z,99.90
2019-03-17T23:24:22.996Z,99.90
2019-03-17T23:26:51.887Z,99.90
2019-03-17T23:29:21.049Z,99.90
2019-03-17T23:31:49.914Z,99.90
2019-03-17T23:34:18.726Z,99.90
2019-03-17T23:36:47.548Z,99.90
2019-03-17T23:39:16.748Z,99.90
2019-03-17T23:41:45.556Z,99.90
2019-03-17T23:44:14.538Z,99.90
2019-03-17T23:46:43.345Z,99.90
2019-03-17T23:49:12.153Z,99.90
2019-03-17T23:51:41.079Z,99.90
2019-03-17T23:54:10.262Z,99.90
2019-03-17T23:56:39.159Z,99.90
2019-03-17T23:59:07.968Z,99.90
